Time;durP1;ratioP1;P1;durP2;ratioP2;P2;SDS_P1;SDS_P2;PMS_P1;PMS_P2;Temp;Humidity;BMP_temperature;BMP_pressure;BME280_temperature;BME280_humidity;BME280_pressure;Samples;Min_cycle;Max_cycle;Signal;HPM_P1;HPM_P2
2022/02/26 00:01:15;;;;;;;3.50;3.20;;;;;;;-0.63;100.00;98027.84;4966823;28;20210;-54
2022/02/26 00:03:43;;;;;;;3.30;3.10;;;;;;;-0.80;100.00;98020.22;4966439;28;20272;-51
2022/02/26 00:06:11;;;;;;;2.83;2.63;;;;;;;-1.15;100.00;98026.56;4965674;28;20241;-49
2022/02/26 00:08:39;;;;;;;3.43;3.13;;;;;;;-1.05;100.00;98040.72;4920939;28;20306;-56
2022/02/26 00:11:08;;;;;;;3.50;3.20;;;;;;;-0.73;100.00;98053.63;4965548;28;20241;-51
2022/02/26 00:13:38;;;;;;;3.17;2.67;;;;;;;-0.58;100.00;98058.81;4948155;28;20247;-52
2022/02/26 00:16:06;;;;;;;3.47;2.63;;;;;;;-0.55;100.00;98061.25;4963034;28;20793;-49
2022/02/26 00:18:36;;;;;;;3.37;3.17;;;;;;;-0.46;100.00;98062.47;4964419;28;20243;-50
2022/02/26 00:21:04;;;;;;;3.60;3.13;;;;;;;-0.46;100.00;98062.47;4967774;28;20299;-54
2022/02/26 00:23:32;;;;;;;3.73;3.37;;;;;;;-0.31;100.00;98066.72;4923584;28;20320;-53
2022/02/26 00:26:00;;;;;;;2.80;2.60;;;;;;;-0.35;100.00;98065.25;4962688;28;20303;-54
2022/02/26 00:28:34;;;;;;;3.27;2.97;;;;;;;-0.23;100.00;98068.00;4948007;28;20978;-51
2022/02/26 00:31:02;;;;;;;3.07;2.87;;;;;;;-0.13;100.00;98068.28;4963878;28;20287;-50
2022/02/26 00:33:30;;;;;;;2.80;2.70;;;;;;;-0.28;100.00;98077.88;4961213;28;20272;-50
2022/02/26 00:36:00;;;;;;;2.90;2.80;;;;;;;-0.27;100.00;98084.75;4964488;28;20323;-49
2022/02/26 00:38:28;;;;;;;6.07;2.97;;;;;;;-0.39;100.00;98088.94;4932338;28;20635;-52
2022/02/26 00:40:57;;;;;;;3.37;3.17;;;;;;;-0.27;100.00;98092.56;4960760;28;20245;-44
2022/02/26 00:43:25;;;;;;;3.57;3.37;;;;;;;-0.35;100.00;98080.03;4955938;28;20216;-50
2022/02/26 00:45:53;;;;;;;2.77;2.53;;;;;;;-0.21;100.00;98106.06;4956212;28;20237;-52
2022/02/26 00:49:46;;;;;;;3.93;3.60;;;;;;;-0.32;100.00;98100.69;4962359;28;20682;-51
2022/02/26 00:51:10;;;;;;;3.50;3.20;;;;;;;-0.16;100.00;98104.03;4965667;28;20237;-50
2022/02/26 00:53:39;;;;;;;3.77;3.40;;;;;;;-0.07;100.00;98109.59;4963504;28;20407;-52
2022/02/26 00:56:07;;;;;;;3.57;3.30;;;;;;;-0.12;100.00;98112.50;4922413;28;20325;-51
2022/02/26 00:58:35;;;;;;;3.27;3.07;;;;;;;-0.25;100.00;98122.81;4959098;28;20238;-47
2022/02/26 01:01:03;;;;;;;3.10;2.90;;;;;;;-0.22;100.00;98120.03;4947385;28;20218;-52
2022/02/26 01:03:32;;;;;;;2.90;2.70;;;;;;;-0.28;100.00;98116.94;4961279;28;20292;-49
2022/02/26 01:06:00;;;;;;;3.30;2.50;;;;;;;-0.24;100.00;98108.03;4966559;28;20222;-51
2022/02/26 01:08:30;;;;;;;3.40;3.10;;;;;;;-0.07;100.00;98109.59;4959422;28;20623;-48
2022/02/26 01:10:58;;;;;;;4.37;3.50;;;;;;;-0.17;100.00;98104.13;4925149;28;20344;-51
2022/02/26 01:13:26;;;;;;;2.70;2.57;;;;;;;-0.19;100.00;98105.97;4961515;28;20233;-53
2022/02/26 01:15:55;;;;;;;3.90;3.30;;;;;;;-0.07;100.00;98115.66;4948130;28;20251;-51
2022/02/26 01:18:23;;;;;;;4.50;3.17;;;;;;;-0.08;100.00;98110.53;4972477;28;20798;-53
2022/02/26 01:20:52;;;;;;;3.10;2.90;;;;;;;-0.12;100.00;98115.09;4970533;28;20213;-52
2022/02/26 01:23:20;;;;;;;3.40;3.07;;;;;;;-0.27;100.00;98122.09;4967267;28;20248;-51
2022/02/26 01:25:49;;;;;;;3.40;3.10;;;;;;;0.01;100.00;98116.94;4927706;28;20348;-50
2022/02/26 01:28:18;;;;;;;3.53;3.33;;;;;;;-0.01;100.00;98123.09;4966209;28;20205;-48
2022/02/26 01:30:46;;;;;;;3.33;3.03;;;;;;;0.11;100.00;98126.72;4952286;28;20288;-53
2022/02/26 01:33:14;;;;;;;3.27;3.07;;;;;;;-0.07;100.00;98115.66;4963789;28;20293;-48
2022/02/26 01:35:42;;;;;;;3.13;2.87;;;;;;;0.03;100.00;98120.28;4965511;28;20308;-47
2022/02/26 01:38:11;;;;;;;3.97;3.57;;;;;;;-0.04;100.00;98123.28;4963197;28;20230;-50
2022/02/26 01:40:39;;;;;;;3.57;3.27;;;;;;;-0.05;100.00;98119.00;4966008;28;20277;-52
2022/02/26 01:43:09;;;;;;;3.57;3.30;;;;;;;-0.14;100.00;98116.97;4925141;28;20879;-53
2022/02/26 01:45:37;;;;;;;3.00;2.80;;;;;;;0.09;100.00;98120.78;4965809;28;20254;-49
2022/02/26 01:48:06;;;;;;;3.23;3.03;;;;;;;0.03;100.00;98112.47;4944652;28;20534;-55
2022/02/26 01:50:34;;;;;;;4.13;3.73;;;;;;;-0.03;100.00;98114.53;4967010;28;20238;-53
2022/02/26 01:53:04;;;;;;;3.50;3.30;;;;;;;-0.10;100.00;98107.19;4964356;28;20360;-52
2022/02/26 01:55:33;;;;;;;3.70;3.40;;;;;;;-0.16;100.00;98109.22;4967172;28;20245;-49
2022/02/26 01:58:01;;;;;;;3.87;3.53;;;;;;;-0.22;100.00;98116.56;4920039;28;20953;-52
2022/02/26 02:00:31;;;;;;;3.53;3.33;;;;;;;-0.17;100.00;98111.94;4964824;28;20934;-51
2022/02/26 02:02:59;;;;;;;3.50;3.20;;;;;;;-0.26;100.00;98113.34;4947228;28;20311;-48
2022/02/26 02:05:28;;;;;;;3.87;3.57;;;;;;;-0.31;100.00;98118.81;4962869;28;20238;-52
2022/02/26 02:07:56;;;;;;;3.50;3.20;;;;;;;-0.22;100.00;98122.63;4960161;28;20197;-51
2022/02/26 02:10:25;;;;;;;3.70;3.50;;;;;;;-0.23;100.00;98113.16;4965969;28;20288;-48
2022/02/26 02:12:53;;;;;;;4.33;3.23;;;;;;;-0.17;100.00;98115.38;4917154;28;20566;-47
2022/02/26 02:15:41;;;;;;;3.07;2.87;;;;;;;-0.09;100.00;98124.50;4226487;28;22265;-49
2022/02/26 02:18:15;;;;;;;5.53;3.33;;;;;;;-0.33;100.00;98125.88;4920225;28;21237;-50
2022/02/26 02:20:45;;;;;;;3.17;2.97;;;;;;;-0.32;100.00;98127.56;4947006;28;20301;-50
2022/02/26 02:23:16;;;;;;;4.03;3.70;;;;;;;-0.20;100.00;98125.97;4947899;28;20448;-52
2022/02/26 02:25:44;;;;;;;3.27;3.07;;;;;;;-0.05;100.00;98131.19;4949862;28;20759;-48
2022/02/26 02:28:12;;;;;;;3.33;3.07;;;;;;;-0.22;100.00;98129.59;4896430;28;20305;-49
2022/02/26 02:30:41;;;;;;;3.80;3.50;;;;;;;-0.11;100.00;98134.16;4939815;28;20317;-52
2022/02/26 02:33:09;;;;;;;5.80;3.10;;;;;;;-0.07;100.00;98127.84;4947811;28;20293;-55
2022/02/26 02:35:40;;;;;;;3.20;3.00;;;;;;;-0.14;100.00;98124.78;4922287;28;20313;-51
2022/02/26 02:38:10;;;;;;;3.53;3.20;;;;;;;-0.30;100.00;98125.69;4948443;28;20289;-53
2022/02/26 02:40:40;;;;;;;4.30;3.10;;;;;;;-0.47;100.00;98128.47;4942776;28;20210;-48
2022/02/26 02:43:09;;;;;;;3.83;3.53;;;;;;;-0.68;100.00;98114.97;4877013;28;20330;-51
2022/02/26 02:45:39;;;;;;;3.40;3.10;;;;;;;-0.72;100.00;98124.72;4943274;28;20550;-52
2022/02/26 02:48:08;;;;;;;4.13;3.60;;;;;;;-0.66;100.00;98124.34;4947190;28;20284;-49
2022/02/26 02:50:36;;;;;;;3.43;2.60;;;;;;;-0.79;100.00;98134.63;4926065;28;20214;-53
2022/02/26 02:53:05;;;;;;;3.53;3.20;;;;;;;-1.15;100.00;98132.38;4944678;28;20230;-52
2022/02/26 02:55:33;;;;;;;3.23;3.00;;;;;;;-1.12;100.00;98140.00;4947833;28;20643;-51
2022/02/26 02:58:03;;;;;;;3.27;3.07;;;;;;;-1.24;100.00;98138.94;4922234;28;20210;-50
2022/02/26 03:00:32;;;;;;;3.50;3.20;;;;;;;-1.38;100.00;98147.50;4933975;28;20207;-48
2022/02/26 03:03:00;;;;;;;3.70;3.43;;;;;;;-1.19;100.00;98149.91;4944488;28;20706;-47
2022/02/26 03:05:29;;;;;;;3.40;3.10;;;;;;;-1.42;100.00;98148.59;4924586;28;22752;-50
2022/02/26 03:07:57;;;;;;;3.37;3.17;;;;;;;-1.59;100.00;98155.56;4946569;28;20414;-49
2022/02/26 03:10:28;;;;;;;3.40;3.20;;;;;;;-1.73;100.00;98150.25;4946251;28;20421;-52
2022/02/26 03:12:56;;;;;;;3.73;3.47;;;;;;;-1.95;100.00;98146.22;4946044;28;20239;-47
2022/02/26 03:15:26;;;;;;;4.40;3.10;;;;;;;-2.07;100.00;98158.09;4898275;28;20380;-51
2022/02/26 03:17:54;;;;;;;4.00;3.70;;;;;;;-2.04;100.00;98169.19;4962497;28;20324;-50
2022/02/26 03:20:23;;;;;;;4.00;3.70;;;;;;;-2.09;100.00;98170.31;4963031;28;20237;-53
2022/02/26 03:22:51;;;;;;;9.13;4.73;;;;;;;-2.07;100.00;98171.09;4943955;28;20214;-48
2022/02/26 03:25:23;;;;;;;3.93;3.63;;;;;;;-2.05;100.00;98171.84;4966944;28;20331;-50
2022/02/26 03:27:52;;;;;;;5.53;3.67;;;;;;;-1.85;100.00;98173.38;4968637;28;20629;-51
2022/02/26 03:30:20;;;;;;;4.33;3.97;;;;;;;-1.81;100.00;98177.50;4915634;28;21491;-54
2022/02/26 03:32:49;;;;;;;4.37;3.97;;;;;;;-1.77;100.00;98176.41;4967196;28;20240;-49
2022/02/26 03:35:18;;;;;;;4.37;3.93;;;;;;;-1.66;100.00;98196.63;4961776;28;20335;-46
2022/02/26 03:37:46;;;;;;;5.10;3.93;;;;;;;-1.49;100.00;98198.31;4942763;28;20209;-48
2022/02/26 03:40:14;;;;;;;5.00;3.40;;;;;;;-1.19;100.00;98205.38;4958629;28;20349;-50
2022/02/26 03:42:43;;;;;;;4.97;4.00;;;;;;;-0.96;100.00;98202.41;4965105;28;20824;-49
2022/02/26 03:45:12;;;;;;;4.57;3.93;;;;;;;-1.22;100.00;98195.16;4912522;28;20633;-50
2022/02/26 03:47:41;;;;;;;3.90;3.60;;;;;;;-1.20;100.00;98213.25;4937128;28;20249;-50
2022/02/26 03:50:11;;;;;;;4.60;4.20;;;;;;;-1.17;100.00;98213.09;4964874;28;20289;-48
2022/02/26 03:52:40;;;;;;;3.57;3.37;;;;;;;-1.14;100.00;98214.69;4939745;28;20404;-48
2022/02/26 03:55:09;;;;;;;3.63;3.43;;;;;;;-1.12;100.00;98225.84;4966818;28;20268;-49
2022/02/26 03:57:43;;;;;;;4.23;3.83;;;;;;;-1.10;100.00;98224.00;4964334;28;20217;-54
2022/02/26 04:00:13;;;;;;;4.17;3.77;;;;;;;-1.10;100.00;98229.19;4967260;28;20625;-51
2022/02/26 04:02:43;;;;;;;4.10;3.43;;;;;;;-1.03;100.00;98231.38;4908489;28;21577;-50
2022/02/26 04:05:13;;;;;;;5.90;3.83;;;;;;;-1.04;100.00;98229.72;4967005;28;20236;-54
2022/02/26 04:07:44;;;;;;;4.00;3.67;;;;;;;-1.02;100.00;98227.84;4917736;28;21374;-49
2022/02/26 04:10:12;;;;;;;5.97;3.70;;;;;;;-1.05;100.00;98227.19;4958419;28;20213;-51
2022/02/26 04:12:41;;;;;;;4.50;3.07;;;;;;;-1.03;100.00;98235.72;4958316;28;20661;-51
2022/02/26 04:15:10;;;;;;;3.47;3.13;;;;;;;-1.06;100.00;98228.09;4935163;28;20722;-49
2022/02/26 04:17:38;;;;;;;4.83;3.63;;;;;;;-0.93;100.00;98234.31;4918706;28;20399;-53
2022/02/26 04:20:09;;;;;;;4.60;3.60;;;;;;;-1.01;100.00;98233.88;4964735;28;20217;-54
2022/02/26 04:22:40;;;;;;;4.23;3.83;;;;;;;-1.02;100.00;98240.88;4938914;28;20392;-51
2022/02/26 04:25:09;;;;;;;3.90;3.50;;;;;;;-1.01;100.00;98244.28;4942532;28;20673;-48
2022/02/26 04:27:38;;;;;;;3.43;3.17;;;;;;;-1.02;100.00;98258.22;4929527;28;20530;-48
2022/02/26 04:30:08;;;;;;;4.47;3.97;;;;;;;-1.00;100.00;98251.16;4966292;28;20209;-51
2022/02/26 04:32:41;;;;;;;5.53;3.13;;;;;;;-1.00;100.00;98251.16;4919587;28;20630;-50
2022/02/26 04:35:10;;;;;;;3.70;3.40;;;;;;;-1.01;100.00;98265.09;4963308;28;20294;-49
2022/02/26 04:37:40;;;;;;;3.80;3.50;;;;;;;-1.06;100.00;98265.38;4963220;28;20470;-51
2022/02/26 04:40:09;;;;;;;4.80;3.70;;;;;;;-0.98;100.00;98269.31;4942582;28;20289;-50
2022/02/26 04:42:38;;;;;;;5.00;4.40;;;;;;;-0.97;100.00;98268.38;4963310;28;20817;-49
2022/02/26 04:45:08;;;;;;;4.37;4.07;;;;;;;-0.94;100.00;98268.22;4964550;28;20225;-54
2022/02/26 04:47:36;;;;;;;5.67;4.10;;;;;;;-1.07;100.00;98271.50;4964318;28;20264;-50
2022/02/26 04:50:06;;;;;;;4.23;3.60;;;;;;;-0.84;100.00;98289.38;4921113;28;20426;-50
2022/02/26 04:52:34;;;;;;;4.63;3.20;;;;;;;-0.89;100.00;98285.25;4960167;28;20288;-48
2022/02/26 04:55:04;;;;;;;3.70;3.40;;;;;;;-0.95;100.00;98288.19;4945253;28;20514;-48
2022/02/26 04:57:33;;;;;;;4.23;3.83;;;;;;;-0.91;100.00;98287.13;4942529;28;20308;-52
2022/02/26 05:00:01;;;;;;;5.27;3.40;;;;;;;-0.92;100.00;98292.38;4970268;28;20349;-50
2022/02/26 05:02:29;;;;;;;4.50;3.57;;;;;;;-0.84;100.00;98297.19;4968180;28;20491;-52
2022/02/26 05:05:00;;;;;;;3.33;3.03;;;;;;;-0.81;100.00;98292.63;4922641;28;20243;-53
2022/02/26 05:07:28;;;;;;;3.83;3.53;;;;;;;-0.85;100.00;98303.31;4958240;28;20250;-49
2022/02/26 05:09:56;;;;;;;3.13;2.93;;;;;;;-0.77;100.00;98306.31;4942624;28;20414;-51
2022/02/26 05:12:26;;;;;;;3.90;3.60;;;;;;;-0.48;100.00;98311.69;4965948;28;20210;-52
2022/02/26 05:14:55;;;;;;;3.17;2.97;;;;;;;-0.73;100.00;98318.25;4964611;28;20679;-51
2022/02/26 05:17:24;;;;;;;3.20;3.00;;;;;;;-0.80;100.00;98315.13;4968656;28;20728;-53
2022/02/26 05:19:52;;;;;;;4.53;4.13;;;;;;;-0.64;100.00;98317.72;4920023;28;20769;-58
2022/02/26 05:22:20;;;;;;;3.57;3.33;;;;;;;-0.41;100.00;98328.63;4965332;28;20305;-55
2022/02/26 05:24:48;;;;;;;5.20;4.10;;;;;;;-0.41;100.00;98327.78;4937619;28;21031;-54
2022/02/26 05:27:16;;;;;;;4.77;4.10;;;;;;;-0.47;100.00;98335.00;4940420;28;20316;-53
2022/02/26 05:29:46;;;;;;;4.10;3.27;;;;;;;-0.51;100.00;98333.50;4961609;28;20217;-51
2022/02/26 05:32:14;;;;;;;6.70;4.00;;;;;;;-0.69;100.00;98337.97;4944425;28;20277;-49
2022/02/26 05:34:42;;;;;;;3.97;3.60;;;;;;;-0.74;100.00;98340.84;4967478;28;20349;-49
2022/02/26 05:37:10;;;;;;;3.30;3.10;;;;;;;-0.76;100.00;98344.44;4921756;28;20214;-54
2022/02/26 05:39:38;;;;;;;4.37;3.97;;;;;;;-0.76;100.00;98349.63;4967085;28;20744;-50
2022/02/26 05:42:07;;;;;;;3.37;3.10;;;;;;;-0.77;100.00;98346.19;4941058;28;20328;-49
2022/02/26 05:44:35;;;;;;;3.53;3.20;;;;;;;-0.65;100.00;98349.88;4970318;28;20285;-48
2022/02/26 05:47:06;;;;;;;6.10;3.33;;;;;;;-0.68;100.00;98359.66;4945649;28;20320;-50
2022/02/26 05:49:35;;;;;;;4.13;3.53;;;;;;;-0.55;100.00;98362.41;4943628;28;20294;-51
2022/02/26 05:52:03;;;;;;;5.83;4.00;;;;;;;-0.65;100.00;98360.28;4920743;28;20357;-51
2022/02/26 05:54:32;;;;;;;4.17;3.60;;;;;;;-0.64;100.00;98369.78;4941675;28;20248;-50
2022/02/26 05:57:01;;;;;;;4.90;3.27;;;;;;;-0.59;100.00;98366.94;4938869;28;20234;-50
2022/02/26 05:59:29;;;;;;;3.53;3.23;;;;;;;-0.71;100.00;98367.63;4949284;28;20307;-51
2022/02/26 06:01:57;;;;;;;7.30;4.50;;;;;;;-0.43;100.00;98377.34;4970419;28;20267;-50
2022/02/26 06:04:27;;;;;;;5.73;3.67;;;;;;;-0.17;100.00;98385.47;4918486;28;20457;-53
2022/02/26 06:06:55;;;;;;;6.70;4.70;;;;;;;-0.18;100.00;98383.81;4922333;28;20232;-52
2022/02/26 06:09:24;;;;;;;4.17;3.87;;;;;;;-0.21;100.00;98383.94;4961570;28;20522;-51
2022/02/26 06:11:52;;;;;;;5.00;3.70;;;;;;;-0.15;100.00;98394.03;4966833;28;20264;-49
2022/02/26 06:14:20;;;;;;;3.97;3.57;;;;;;;-0.30;100.00;98386.16;4924040;28;20230;-50
2022/02/26 06:16:48;;;;;;;4.10;3.70;;;;;;;-0.21;100.00;98395.22;4940516;28;20225;-47
2022/02/26 06:19:16;;;;;;;5.73;3.97;;;;;;;-0.06;100.00;98403.09;4935491;28;20218;-49
2022/02/26 06:21:48;;;;;;;4.50;3.57;;;;;;;-0.30;100.00;98406.16;4966529;28;20456;-52
2022/02/26 06:24:16;;;;;;;4.47;3.40;;;;;;;-0.27;100.00;98410.34;4915167;28;20352;-50
2022/02/26 06:26:44;;;;;;;4.17;3.73;;;;;;;-0.26;100.00;98409.41;4963227;28;20230;-51
2022/02/26 06:29:12;;;;;;;5.17;3.90;;;;;;;-0.11;100.00;98415.53;4950519;28;20297;-52
2022/02/26 06:31:40;;;;;;;3.63;3.33;;;;;;;-0.08;100.00;98413.63;4968673;28;20293;-51
2022/02/26 06:34:09;;;;;;;3.80;3.53;;;;;;;0.02;100.00;98416.53;4951896;28;20705;-52
2022/02/26 06:36:38;;;;;;;3.77;3.37;;;;;;;-0.15;100.00;98420.09;4967512;28;20198;-48
2022/02/26 06:39:09;;;;;;;5.03;3.33;;;;;;;-0.03;100.00;98424.63;4927891;28;20926;-50
2022/02/26 06:41:37;;;;;;;6.53;3.60;;;;;;;0.08;100.00;98421.41;4962626;28;20953;-56
2022/02/26 06:44:06;;;;;;;3.33;3.03;;;;;;;0.04;100.00;98434.69;4958711;28;20257;-54
2022/02/26 06:46:37;;;;;;;3.93;3.43;;;;;;;0.10;100.00;98435.19;4928192;28;21244;-49
2022/02/26 06:49:06;;;;;;;5.73;3.87;;;;;;;-0.06;100.00;98435.22;4947717;28;20209;-52
2022/02/26 06:51:35;;;;;;;6.47;3.87;;;;;;;-0.05;100.00;98436.88;4952452;28;20987;-53
2022/02/26 06:54:03;;;;;;;3.53;3.23;;;;;;;0.05;100.00;98436.38;4966967;28;20233;-54
2022/02/26 06:56:34;;;;;;;4.20;3.10;;;;;;;0.03;100.00;98441.69;4935081;28;20814;-49
2022/02/26 06:59:02;;;;;;;3.80;3.50;;;;;;;0.22;100.00;98444.09;4965777;28;20347;-55
2022/02/26 07:01:33;;;;;;;4.80;4.10;;;;;;;0.32;100.00;98446.97;4950197;28;20909;-53
2022/02/26 07:04:02;;;;;;;3.87;3.57;;;;;;;0.45;100.00;98443.69;4951230;28;20218;-53
2022/02/26 07:06:30;;;;;;;3.20;2.90;;;;;;;0.45;100.00;98441.91;4953832;28;20746;-47
2022/02/26 07:08:58;;;;;;;3.83;3.00;;;;;;;0.21;100.00;98442.41;4942162;28;20315;-49
2022/02/26 07:11:27;;;;;;;3.23;3.03;;;;;;;0.22;100.00;98454.50;4924239;28;20700;-51
2022/02/26 07:13:56;;;;;;;3.43;3.20;;;;;;;0.46;100.00;98446.19;4966956;28;20260;-52
2022/02/26 07:16:24;;;;;;;3.67;3.37;;;;;;;0.63;100.00;98450.44;4936943;28;20246;-51
2022/02/26 07:18:53;;;;;;;5.03;3.07;;;;;;;0.55;100.00;98450.88;4963636;28;20193;-55
2022/02/26 07:21:21;;;;;;;5.17;4.30;;;;;;;0.50;100.00;98457.28;4952103;28;21205;-53
2022/02/26 07:23:49;;;;;;;3.93;3.10;;;;;;;0.52;100.00;98460.66;4950324;28;20233;-52
2022/02/26 07:26:18;;;;;;;3.63;3.07;;;;;;;0.57;100.00;98459.47;4928256;28;20632;-52
2022/02/26 07:28:46;;;;;;;4.63;3.90;;;;;;;0.49;100.00;98461.66;4961126;28;20312;-47
2022/02/26 07:31:15;;;;;;;5.43;4.93;;;;;;;0.54;100.00;98462.22;4941083;28;20739;-51
2022/02/26 07:33:44;;;;;;;6.97;4.73;;;;;;;0.51;100.00;98467.63;4963441;28;20206;-52
2022/02/26 07:36:12;;;;;;;6.68;4.95;;;;;;;0.51;100.00;98469.41;4953150;28;20548;-54
2022/02/26 07:38:40;;;;;;;4.30;3.87;;;;;;;0.59;100.00;98468.97;4946270;28;20198;-52
2022/02/26 07:41:09;;;;;;;3.33;3.03;;;;;;;0.70;100.00;98463.97;4965663;28;20301;-53
2022/02/26 07:43:38;;;;;;;3.43;2.90;;;;;;;0.87;100.00;98473.41;4902006;28;20272;-52
2022/02/26 07:46:07;;;;;;;6.33;3.23;;;;;;;0.81;100.00;98474.59;4941637;28;20325;-54
2022/02/26 07:48:37;;;;;;;3.80;3.33;;;;;;;1.02;100.00;98471.66;4948087;28;20218;-49
2022/02/26 07:51:05;;;;;;;3.27;2.97;;;;;;;1.08;100.00;98473.03;4947917;28;20309;-55
2022/02/26 07:53:33;;;;;;;5.53;3.43;;;;;;;1.19;100.00;98483.69;4949712;28;21027;-51
2022/02/26 07:56:02;;;;;;;4.80;3.30;;;;;;;1.18;100.00;98483.78;4933782;28;21224;-51
2022/02/26 07:58:30;;;;;;;5.83;3.43;;;;;;;1.31;100.00;98479.47;4919815;28;20296;-49
2022/02/26 08:00:58;;;;;;;3.60;3.33;;;;;;;1.17;100.00;98479.47;4945769;28;20233;-52
2022/02/26 08:03:26;;;;;;;5.73;3.90;;;;;;;0.98;100.00;98480.59;4951450;28;20268;-49
2022/02/26 08:05:56;;;;;;;4.07;3.67;;;;;;;1.22;100.00;98485.25;4944599;28;20221;-52
2022/02/26 08:08:24;;;;;;;4.60;3.37;;;;;;;1.39;100.00;98492.06;4959967;28;20727;-50
2022/02/26 08:10:53;;;;;;;3.87;3.57;;;;;;;1.58;100.00;98482.19;4948595;28;20218;-47
2022/02/26 08:13:21;;;;;;;4.13;3.60;;;;;;;1.44;100.00;98498.72;4916406;28;20563;-49
2022/02/26 08:15:49;;;;;;;4.63;3.53;;;;;;;1.55;100.00;98492.84;4939232;28;21010;-50
2022/02/26 08:18:18;;;;;;;6.73;3.17;;;;;;;1.53;100.00;98493.84;4934839;28;20217;-48
2022/02/26 08:20:46;;;;;;;4.50;3.30;;;;;;;1.71;100.00;98499.72;4960958;28;20300;-49
2022/02/26 08:23:15;;;;;;;4.93;3.63;;;;;;;1.51;100.00;98504.38;4947254;28;20232;-49
2022/02/26 08:25:43;;;;;;;4.23;3.70;;;;;;;1.55;100.00;98507.66;4945664;28;20288;-50
2022/02/26 08:28:11;;;;;;;4.57;3.00;;;;;;;1.35;100.00;98509.72;4921963;28;20325;-50
2022/02/26 08:30:40;;;;;;;7.63;3.77;;;;;;;1.22;100.00;98506.16;4961082;28;20328;-48
2022/02/26 08:33:08;;;;;;;4.33;3.13;;;;;;;1.24;100.00;98510.38;4946577;28;20380;-53
2022/02/26 08:35:36;;;;;;;8.00;3.70;;;;;;;1.19;100.00;98508.94;4967485;28;20241;-49
2022/02/26 08:38:05;;;;;;;5.70;3.47;;;;;;;1.22;100.00;98516.59;4947532;28;20538;-50
2022/02/26 08:40:35;;;;;;;5.47;3.57;;;;;;;1.20;100.00;98516.72;4964521;28;20210;-48
2022/02/26 08:43:03;;;;;;;5.60;3.57;;;;;;;1.23;100.00;98513.91;4951008;28;20495;-53
2022/02/26 08:45:35;;;;;;;3.20;2.97;;;;;;;1.27;100.00;98515.41;4923248;28;20357;-49
2022/02/26 08:48:04;;;;;;;8.37;4.43;;;;;;;1.28;100.00;98516.22;4946352;28;23189;-53
2022/02/26 08:50:32;;;;;;;3.40;3.10;;;;;;;1.42;100.00;98516.25;4966418;28;20245;-52
2022/02/26 08:53:00;;;;;;;6.07;4.17;;;;;;;1.47;100.00;98508.13;4949498;28;20677;-53
2022/02/26 08:55:29;;;;;;;7.90;3.63;;;;;;;1.73;100.00;98513.53;4963478;28;20253;-48
2022/02/26 08:57:58;;;;;;;5.43;3.20;;;;;;;1.78;100.00;98515.84;4950510;28;20324;-52
2022/02/26 09:00:26;;;;;;;4.33;2.70;;;;;;;1.92;100.00;98512.38;4927983;28;20395;-56
2022/02/26 09:02:54;;;;;;;5.77;3.63;;;;;;;2.12;100.00;98522.41;4964532;28;20296;-51
2022/02/26 09:05:23;;;;;;;3.60;3.30;;;;;;;2.01;100.00;98520.47;4952679;28;20460;-52
2022/02/26 09:07:51;;;;;;;4.07;2.97;;;;;;;2.19;100.00;98527.25;4950883;28;20297;-50
2022/02/26 09:10:19;;;;;;;3.03;2.83;;;;;;;2.05;100.00;98525.50;4965538;28;20321;-46
2022/02/26 09:12:47;;;;;;;6.00;3.30;;;;;;;2.16;100.00;98539.56;4955898;28;20233;-52
2022/02/26 09:15:17;;;;;;;5.30;3.10;;;;;;;2.33;100.00;98528.97;4924764;28;20587;-50
2022/02/26 09:17:45;;;;;;;5.20;2.23;;;;;;;2.20;100.00;98529.78;4964076;28;20686;-51
2022/02/26 09:20:14;;;;;;;5.57;2.40;;;;;;;2.36;100.00;98539.25;4951516;28;20214;-48
2022/02/26 09:22:42;;;;;;;6.37;4.37;;;;;;;2.33;100.00;98539.44;4956690;28;20214;-51
2022/02/26 09:25:13;;;;;;;5.20;4.10;;;;;;;2.30;100.00;98541.31;4965423;28;20333;-50
2022/02/26 09:27:43;;;;;;;4.53;2.43;;;;;;;2.42;100.00;98542.31;4961160;28;20264;-49
2022/02/26 09:30:13;;;;;;;5.83;2.63;;;;;;;2.29;100.00;98544.06;4910504;28;20850;-52
2022/02/26 09:32:42;;;;;;;7.57;3.50;;;;;;;2.55;100.00;98544.97;4962314;28;20214;-49
2022/02/26 09:35:11;;;;;;;4.40;3.30;;;;;;;2.75;100.00;98540.22;4946851;28;20611;-49
2022/02/26 09:37:39;;;;;;;7.10;2.57;;;;;;;3.05;100.00;98536.50;4944649;28;20307;-49
2022/02/26 09:40:08;;;;;;;4.80;3.03;;;;;;;3.28;100.00;98534.13;4951234;28;20768;-49
2022/02/26 09:42:36;;;;;;;11.37;2.97;;;;;;;3.40;100.00;98528.03;4947815;28;20405;-52
2022/02/26 09:45:05;;;;;;;6.00;3.10;;;;;;;3.51;100.00;98532.53;4955332;28;20296;-49
2022/02/26 09:47:33;;;;;;;3.33;2.30;;;;;;;3.64;100.00;98522.06;4923365;28;20671;-49
2022/02/26 09:50:04;;;;;;;2.37;2.10;;;;;;;4.03;100.00;98532.44;4958930;28;20317;-54
2022/02/26 09:52:38;;;;;;;2.63;2.37;;;;;;;4.10;100.00;98541.56;4923347;28;20221;-53
2022/02/26 09:55:08;;;;;;;6.40;2.70;;;;;;;4.57;100.00;98541.69;4943916;28;20547;-50
2022/02/26 09:57:36;;;;;;;3.03;2.30;;;;;;;4.49;100.00;98530.94;4943273;28;20301;-56
2022/02/26 10:00:05;;;;;;;3.90;2.20;;;;;;;4.41;100.00;98538.53;4947976;28;20237;-49
2022/02/26 10:02:35;;;;;;;4.10;2.37;;;;;;;4.86;100.00;98543.13;4926782;28;20309;-55
2022/02/26 10:05:09;;;;;;;4.18;2.22;;;;;;;5.02;100.00;98535.78;4963501;28;20470;-47
2022/02/26 10:07:39;;;;;;;5.43;2.40;;;;;;;5.34;100.00;98531.66;4955769;28;20213;-50
2022/02/26 10:10:09;;;;;;;4.67;1.90;;;;;;;5.54;100.00;98535.38;4950276;28;20447;-53
2022/02/26 10:12:37;;;;;;;2.90;2.35;;;;;;;5.75;100.00;98543.41;4960906;28;20452;-52
2022/02/26 10:15:07;;;;;;;6.80;2.30;;;;;;;5.56;100.00;98538.72;4945040;28;20295;-47
2022/02/26 10:17:38;;;;;;;6.30;3.03;;;;;;;5.24;100.00;98549.09;4922136;28;20534;-51
2022/02/26 10:20:13;;;;;;;2.43;2.27;;;;;;;4.97;100.00;98547.56;4939261;28;20993;-51
2022/02/26 10:22:51;;;;;;;7.90;2.03;;;;;;;5.04;100.00;98548.78;4947325;28;20333;-51
2022/02/26 10:25:21;;;;;;;7.57;1.83;;;;;;;4.72;100.00;98542.38;4948372;28;20233;-50
2022/02/26 10:27:53;;;;;;;4.40;1.90;;;;;;;4.50;100.00;98532.59;4963717;28;20232;-45
2022/02/26 10:30:26;;;;;;;3.63;1.90;;;;;;;4.89;100.00;98549.00;4956091;28;20257;-53
2022/02/26 10:33:08;;;;;;;4.73;1.97;;;;;;;4.57;100.00;98533.00;4931918;28;20296;-54
2022/02/26 10:35:41;;;;;;;3.93;1.80;;;;;;;4.55;100.00;98540.97;4962807;28;20316;-48
2022/02/26 10:38:15;;;;;;;3.00;1.60;;;;;;;4.81;100.00;98542.63;4945630;28;20287;-54
2022/02/26 10:41:04;;;;;;;3.33;2.27;;;;;;;4.87;100.00;98550.91;4936615;28;20939;-52
2022/02/26 10:43:47;;;;;;;3.00;2.00;;;;;;;5.26;100.00;98555.06;4947943;28;20222;-49
2022/02/26 10:46:21;;;;;;;2.43;1.97;;;;;;;5.03;100.00;98541.84;4969971;28;20241;-52
2022/02/26 10:48:52;;;;;;;6.13;3.10;;;;;;;5.24;100.00;98522.81;4926122;28;20217;-50
2022/02/26 10:51:24;;;;;;;2.47;1.90;;;;;;;5.57;100.00;98531.69;4961815;28;20234;-51
2022/02/26 10:53:52;;;;;;;3.03;2.40;;;;;;;5.97;100.00;98528.56;4962538;28;20272;-53
2022/02/26 10:56:20;;;;;;;4.47;2.10;;;;;;;5.75;100.00;98538.13;4944924;28;20297;-50
2022/02/26 10:58:49;;;;;;;4.83;1.80;;;;;;;5.85;100.00;98547.94;4945144;28;20660;-52
2022/02/26 11:01:17;;;;;;;3.07;2.17;;;;;;;5.56;100.00;98544.00;4954443;28;20244;-50
2022/02/26 11:03:46;;;;;;;3.37;1.73;;;;;;;6.07;100.00;98545.31;4922883;28;21630;-47
2022/02/26 11:06:15;;;;;;;4.00;1.80;;;;;;;6.17;100.00;98544.59;4961436;28;20228;-52
2022/02/26 11:08:45;;;;;;;5.00;2.37;;;;;;;5.75;100.00;98546.03;4947317;28;20561;-51
2022/02/26 11:11:13;;;;;;;2.17;1.53;;;;;;;6.36;100.00;98542.16;4960071;28;20320;-50
2022/02/26 11:13:43;;;;;;;2.80;2.47;;;;;;;6.97;100.00;98536.41;4930562;28;20641;-50
2022/02/26 11:16:13;;;;;;;3.80;2.17;;;;;;;6.66;96.56;98529.25;4959601;28;20230;-52
2022/02/26 11:18:45;;;;;;;1.73;1.60;;;;;;;6.70;100.00;98528.03;4961856;28;20581;-56
2022/02/26 11:21:16;;;;;;;3.60;2.20;;;;;;;6.26;93.49;98532.50;4923983;28;20831;-52
2022/02/26 11:23:48;;;;;;;3.00;2.07;;;;;;;6.46;99.69;98534.38;4931162;28;20214;-52
2022/02/26 11:26:18;;;;;;;3.10;1.77;;;;;;;5.98;100.00;98532.03;4963873;28;20640;-51
2022/02/26 11:28:49;;;;;;;3.00;1.70;;;;;;;5.56;100.00;98535.28;4950729;28;20766;-50
2022/02/26 11:31:22;;;;;;;2.80;2.00;;;;;;;5.73;100.00;98534.78;4937984;28;20339;-50
2022/02/26 11:33:52;;;;;;;5.03;2.37;;;;;;;5.46;100.00;98532.50;4955918;28;20687;-52
2022/02/26 11:36:20;;;;;;;2.00;1.90;;;;;;;5.12;96.93;98530.69;4937859;28;20564;-49
2022/02/26 11:38:57;;;;;;;3.17;1.97;;;;;;;4.76;100.00;98525.44;4961376;28;20683;-51